METAR AND TAF INFORMATION
METAR FOR LIBP
ADDS - METARS form results

(1002 UTC 19 June 2018)
Data provider http://aviationweather.gov/adds/metars/
 
Forecast for: LIBP (PESCARA , IT)
Text: TAF LIBP 190500Z 1906/2006 34009KT 9999 SCT030
Forecast period: 0600 UTC 19 June 2018 to 0600 UTC 20 June 2018
Forecast type: FROM: standard forecast or significant change
Winds: from the NNW (340 degrees) at 10 MPH (9 knots; 4.7 m/s)
Visibility: 6 or more miles (10+ km)
Clouds: scattered clouds at 3000 feet AGL
Weather: no significant weather forecast for this period

 AIRPORT MAP

 RUNWAY INFORMATION
Runway 04 Runway length 7933 ft Runway width 148 ft
Runway elevation 46 ft Runway displaced threshold 344 ft Runway heading 38
Runway 22 Runway length 7933 ft Runway width 148 ft
Runway elevation 27 ft Runway displaced threshold 617 ft Runway heading 218

 AIRPORT FREQUENCIES
Type APP Name APP Frequency 120.05 MHZ
Type TWR Name TWR Frequency 118.45 MHZ

 AIRPORT NEAR NAVIGATION AIDS
Type VOR-DME Name Pescara Frequency 115900 KHZ



Powered by Virtual Airlines Manager [v2.6.2]